METAR (acronimo di METeorological Air Report) è un messaggio meteo emesso nella maggior parte dei casi in ambito aeroportuale

LIPF - Ferrara, It
Distanza dalla Stazione: 8 km
Ultimo Aggiornamento: Sabato 10 Aprile 2021 19:55 CEST
Dati non Recenti
Parzialmente Nuvoloso
Parzialmente Nuvoloso
 Wind from calm
Vento: Calma
Temperatura: 13°C
Punto di Rugiada: 10°C
Umidità: 82%
Barometro: 1020 hPa
Nuvole: Parzialmente Nuvoloso
Visibilità: 10 km
Nuvole nel Dettaglio: Parzialmente Nuvoloso 914 m
Parzialmente Nuvoloso 2438 m
2021/04/10 17:55 LIPF 101755Z 00000KT 9999 SCT030 SCT080 13/10 Q1020
LIPE - Bologna Borgo Panigale, It
Distanza dalla Stazione: 46 km
Ultimo Aggiornamento: Domenica 11 Aprile 2021 05:20 CEST
Prevalentemente Nuvoloso
Prevalentemente Nuvoloso
 Wind from Est
Vento: Est 9 km/h
Temperatura: 10°C
Wind Chill: 9°C
Punto di Rugiada: 10°C
Umidità: 100%
Barometro: 1017 hPa
Nuvole: Prevalentemente Nuvoloso
Visibilità: 7 km
Nuvole nel Dettaglio: Parzialmente Nuvoloso 183 m
Prevalentemente Nuvoloso 1128 m
2021/04/11 03:20 LIPE 110320Z 08005KT 7000 SCT006 BKN037 10/10 Q1017
LIMF - Torino Caselle, It
Distanza dalla Stazione: 320 km
Ultimo Aggiornamento: Domenica 11 Aprile 2021 05:20 CEST
Pioggia Leggera, Nuvoloso
Pioggia Leggera, Nuvoloso
 Wind from Nord-Ovest
Vento: Nord-Ovest 9 km/h
Temperatura: 6°C
Wind Chill: 4°C
Punto di Rugiada: 5°C
Umidità: 93%
Barometro: 1017 hPa
Condizioni: Pioggia Leggera
Nuvole: Nuvoloso
Visibilità: 9 km
Nuvole nel Dettaglio: Prevalentemente Nuvoloso 1219 m
Nuvoloso 1524 m
2021/04/11 03:20 LIMF 110320Z 31005KT 9000 -RA BKN040 OVC050 06/05 Q1017
 
LIML - Milano Malpensa, It
Distanza dalla Stazione: 249 km
Ultimo Aggiornamento: Domenica 11 Aprile 2021 05:20 CEST
Pioggia Leggera, Prevalentemente Nuvoloso
Pioggia Leggera, Prevalentemente Nuvoloso
 Wind from Nord
Vento: Nord 9 km/h
Temperatura: 9°C
Wind Chill: 7°C
Punto di Rugiada: 8°C
Umidità: 94%
Barometro: 1017 hPa
Condizioni: Pioggia Leggera
Nuvole: Prevalentemente Nuvoloso
Visibilità: 6 km
Nuvole nel Dettaglio: Parzialmente Nuvoloso 457 m
Prevalentemente Nuvoloso 1372 m
2021/04/11 03:20 LIML 110320Z 01005KT 6000 -RA SCT015 BKN045 09/08 Q1017 NOSIG
LIME - Bergamo Orio al Serio, It
Distanza dalla Stazione: 181 km
Ultimo Aggiornamento: Domenica 11 Aprile 2021 05:20 CEST
Pioggia, Prevalentemente Nuvoloso
Pioggia, Prevalentemente Nuvoloso
 Wind from varies
Vento: variabile 4 km/h
Temperatura: 8°C
Punto di Rugiada: 8°C
Umidità: 100%
Barometro: 1017 hPa
Condizioni: Pioggia
Nuvole: Prevalentemente Nuvoloso
Visibilità: 8 km
Nuvole nel Dettaglio: Prevalentemente Nuvoloso 1219 m
2021/04/11 03:20 LIME 110320Z VRB02KT 8000 RA BKN040 08/08 Q1017 NOSIG
LIPZ - Venezia Tessera, It
Distanza dalla Stazione: 93 km
Ultimo Aggiornamento: Domenica 11 Aprile 2021 05:20 CEST
Pioggia Leggera, Nuvoloso
Pioggia Leggera, Nuvoloso
 Wind from Sud-Sud-Est
Vento: Sud-Sud-Est 11 km/h
Temperatura: 11°C
Punto di Rugiada: 10°C
Umidità: 94%
Barometro: 1019 hPa
Condizioni: Pioggia Leggera
Nuvole: Nuvoloso
Visibilità: 10 km
Nuvole nel Dettaglio: Qualche Nuvola 152 m
Parzialmente Nuvoloso 457 m
Nuvoloso 1219 m
2021/04/11 03:20 LIPZ 110320Z 16006KT 9999 -RA FEW005 SCT015 OVC040 11/10 Q1019 NOSIG
 
LIVT - Trieste, It
Distanza dalla Stazione: 179 km
Ultimo Aggiornamento: Sabato 10 Aprile 2021 19:55 CEST
Dati non Recenti
Sereno
Sereno
 Wind from Sud
Vento: Sud 6 km/h
Temperatura: 13°C
Punto di Rugiada: 6°C
Umidità: 63%
Barometro: 1021 hPa
Condizioni: Sereno
Visibilità: superiore a 10 km
2021/04/10 17:55 LIVT 101755Z 17003KT CAVOK 13/06 Q1021 RMK BKN BKN070 QUK 0 QUL 0 VIS MAR 20 KM VIS MIN 9999
LIMJ - Genova, It
Distanza dalla Stazione: 229 km
Ultimo Aggiornamento: Domenica 11 Aprile 2021 05:20 CEST
Pioggia, Prevalentemente Nuvoloso
Pioggia, Prevalentemente Nuvoloso
 Wind from Nord-Nord-Est
Vento: Nord-Nord-Est 30 km/h
Temperatura: 9°C
Wind Chill: 5°C
Punto di Rugiada: 7°C
Umidità: 87%
Barometro: 1015 hPa
Condizioni: Pioggia
Nuvole: Prevalentemente Nuvoloso
Visibilità: 6 km
Nuvole nel Dettaglio: Prevalentemente Nuvoloso 1067 m
2021/04/11 03:20 LIMJ 110320Z 03016KT 6000 RA BKN035 09/07 Q1015
LIRQ - Firenze Amerigo Vespucci, It
Distanza dalla Stazione: 119 km
Ultimo Aggiornamento: Domenica 11 Aprile 2021 05:20 CEST
Pioggia Leggera, Qualche Nuvola
Pioggia Leggera, Qualche Nuvola
 Wind from Est-Sud-Est
Vento: Est-Sud-Est 13 km/h
Temperatura: 11°C
Punto di Rugiada: 9°C
Umidità: 88%
Barometro: 1017 hPa
Condizioni: Pioggia Leggera
Nuvole: Qualche Nuvola
Visibilità: 10 km
Nuvole nel Dettaglio: Qualche Nuvola 914 m
2021/04/11 03:20 LIRQ 110320Z 11007KT 9999 -RA FEW030 11/09 Q1017
 
LIPY - Ancona, It
Distanza dalla Stazione: 189 km
Ultimo Aggiornamento: Domenica 11 Aprile 2021 05:20 CEST
Prevalentemente Nuvoloso
Prevalentemente Nuvoloso
 Wind from Sud-Ovest
Vento: Sud-Ovest 6 km/h
Temperatura: 9°C
Punto di Rugiada: 8°C
Umidità: 94%
Barometro: 1018 hPa
Nuvole: Prevalentemente Nuvoloso
Visibilità: 10 km
Nuvole nel Dettaglio: Prevalentemente Nuvoloso 2774 m
2021/04/11 03:20 LIPY 110320Z AUTO 22003KT 170V240 9999 BKN091/// 09/08 Q1018
LIBP - Pescara, It
Distanza dalla Stazione: 333 km
Ultimo Aggiornamento: Domenica 11 Aprile 2021 05:20 CEST
Prevalentemente Nuvoloso
Prevalentemente Nuvoloso
 Wind from Sud-Sud-Ovest
Vento: Sud-Sud-Ovest 7 km/h
Temperatura: 9°C
Wind Chill: 8°C
Punto di Rugiada: 7°C
Umidità: 87%
Barometro: 1018 hPa
Nuvole: Prevalentemente Nuvoloso
Visibilità: 10 km
Nuvole nel Dettaglio: Prevalentemente Nuvoloso 4572 m
2021/04/11 03:20 LIBP 110320Z AUTO 21004KT 9999 BKN150/// 09/07 Q1018
LIRF - Roma-Fiumicino, It
Distanza dalla Stazione: 334 km
Ultimo Aggiornamento: Domenica 11 Aprile 2021 05:20 CEST
Sereno
Sereno
 Wind from Sud-Est
Vento: Sud-Est 19 km/h
Temperatura: 13°C
Punto di Rugiada: 9°C
Umidità: 77%
Barometro: 1019 hPa
Condizioni: Sereno
Visibilità: superiore a 10 km
2021/04/11 03:20 LIRF 110320Z 13010KT CAVOK 13/09 Q1019 NOSIG
 
LIRN - Napoli Capodichino, It
Distanza dalla Stazione: 494 km
Ultimo Aggiornamento: Domenica 11 Aprile 2021 05:20 CEST
Sereno
Sereno
 Wind from Nord-Est
Vento: Nord-Est 4 km/h
Temperatura: 10°C
Punto di Rugiada: 5°C
Umidità: 71%
Barometro: 1020 hPa
Condizioni: Sereno
Visibilità: superiore a 10 km
2021/04/11 03:20 LIRN 110320Z 05002KT CAVOK 10/05 Q1020 NOSIG
LIBD - Bari Palese, It
Distanza dalla Stazione: 594 km
Ultimo Aggiornamento: Domenica 11 Aprile 2021 05:20 CEST
Sereno
Sereno
 Wind from Sud-Est
Vento: Sud-Est 9 km/h
Temperatura: 8°C
Wind Chill: 6°C
Punto di Rugiada: 7°C
Umidità: 93%
Barometro: 1021 hPa
Condizioni: Sereno
Visibilità: superiore a 10 km
2021/04/11 03:20 LIBD 110320Z 13005KT CAVOK 08/07 Q1021
LIBG - Taranto Grottaglie, It
Distanza dalla Stazione: 670 km
Ultimo Aggiornamento: Sabato 10 Aprile 2021 19:50 CEST
Dati non Recenti
Sereno
Sereno
 Wind from Sud-Sud-Est
Vento: Sud-Sud-Est 7 km/h
Temperatura: 10°C
Wind Chill: 9°C
Punto di Rugiada: 5°C
Umidità: 71%
Barometro: 1024 hPa
Condizioni: Sereno
Visibilità: superiore a 10 km
2021/04/10 17:50 LIBG 101750Z 15004KT CAVOK 10/05 Q1024
 
LICR - Reggio Calabria, It
Distanza dalla Stazione: 819 km
Ultimo Aggiornamento: Domenica 11 Aprile 2021 05:20 CEST
Parzialmente Nuvoloso
Parzialmente Nuvoloso
 Wind from Sud-Sud-Est
Vento: Sud-Sud-Est 17 km/h
Temperatura: 13°C
Punto di Rugiada: 10°C
Umidità: 82%
Barometro: 1022 hPa
Nuvole: Parzialmente Nuvoloso
Visibilità: 10 km
Nuvole nel Dettaglio: Parzialmente Nuvoloso 853 m
2021/04/11 03:20 LICR 110320Z AUTO 16009KT 9999 SCT028/// 13/10 Q1022
LICJ - Palermo Punta Raisi, It
Distanza dalla Stazione: 762 km
Ultimo Aggiornamento: Domenica 11 Aprile 2021 04:50 CEST
Sereno
Sereno
 Wind from varies
Vento: variabile 2 km/h
Temperatura: 12°C
Punto di Rugiada: 6°C
Umidità: 67%
Barometro: 1019 hPa
Condizioni: Sereno
Visibilità: superiore a 10 km
2021/04/11 02:50 LICJ 110250Z VRB01KT CAVOK 12/06 Q1019
LICC - Catania Fontanarossa, It
Distanza dalla Stazione: 866 km
Ultimo Aggiornamento: Domenica 11 Aprile 2021 05:20 CEST
Sereno
Sereno
 Wind from Sud-Ovest
Vento: Sud-Ovest 7 km/h
Temperatura: 6°C
Wind Chill: 4°C
Punto di Rugiada: 5°C
Umidità: 93%
Barometro: 1022 hPa
Condizioni: Sereno
Visibilità: superiore a 10 km
2021/04/11 03:20 LICC 110320Z 22004KT CAVOK 06/05 Q1022
 
LIEE - Cagliari Elmas, It
Distanza dalla Stazione: 655 km
Ultimo Aggiornamento: Domenica 11 Aprile 2021 05:20 CEST
Prevalentemente Nuvoloso
Prevalentemente Nuvoloso
 Wind from Sud-Sud-Est
Vento: Sud-Sud-Est 22 km/h
Temperatura: 15°C
Punto di Rugiada: 14°C
Umidità: 94%
Barometro: 1016 hPa
Nuvole: Prevalentemente Nuvoloso
Visibilità: 10 km
Nuvole nel Dettaglio: Prevalentemente Nuvoloso 457 m
2021/04/11 03:20 LIEE 110320Z 15012KT 9999 BKN015 15/14 Q1016
LIEO - Olbia, It
Distanza dalla Stazione: 463 km
Ultimo Aggiornamento: Domenica 11 Aprile 2021 05:20 CEST
Sereno
Sereno
 Wind from Est-Sud-Est
Vento: Est-Sud-Est 6 km/h
Temperatura: 15°C
Punto di Rugiada: 11°C
Umidità: 77%
Barometro: 1014 hPa
Condizioni: Sereno
Visibilità: superiore a 10 km
2021/04/11 03:20 LIEO 110320Z 11003KT 080V150 CAVOK 15/11 Q1014
LICG - Pantelleria, It
Distanza dalla Stazione: 893 km
Ultimo Aggiornamento: Sabato 10 Aprile 2021 19:50 CEST
Dati non Recenti
Qualche Nuvola
Qualche Nuvola
 Wind from varies
Vento: variabile 11 km/h
Temperatura: 14°C
Punto di Rugiada: 8°C
Umidità: 67%
Barometro: 1021 hPa
Nuvole: Qualche Nuvola
Visibilità: 10 km
Nuvole nel Dettaglio: Qualche Nuvola 610 m
2021/04/10 17:50 LICG 101750Z VRB06KT 9999 FEW020 14/08 Q1021